createdAt,value
2018-10-16T00:00:33.121Z,6.80
2018-10-16T00:03:01.764Z,6.80
2018-10-16T00:05:30.392Z,6.70
2018-10-16T00:07:59.895Z,6.60
2018-10-16T00:10:34.341Z,6.60
2018-10-16T00:13:02.843Z,6.60
2018-10-16T00:15:31.342Z,6.60
2018-10-16T00:18:00.660Z,6.60
2018-10-16T00:20:29.847Z,6.50
2018-10-16T00:22:59.406Z,6.50
2018-10-16T00:25:28.394Z,6.50
2018-10-16T00:27:58.559Z,6.40
2018-10-16T00:30:27.327Z,6.40
2018-10-16T00:32:55.869Z,6.50
2018-10-16T00:35:24.418Z,6.50
2018-10-16T00:37:53.716Z,6.50
2018-10-16T00:40:22.961Z,6.40
2018-10-16T00:42:51.458Z,6.30
2018-10-16T00:45:19.975Z,6.40
2018-10-16T00:47:48.616Z,6.40
2018-10-16T00:50:18.491Z,6.40
2018-10-16T00:52:47.755Z,6.40
2018-10-16T00:55:16.299Z,6.40
2018-10-16T00:57:44.840Z,6.40
2018-10-16T01:00:14.563Z,6.40
2018-10-16T01:02:43.780Z,6.50
2018-10-16T01:05:13.423Z,6.50
2018-10-16T01:07:43.473Z,6.60
2018-10-16T01:10:13.210Z,6.60
2018-10-16T01:12:41.975Z,6.60
2018-10-16T01:15:11.812Z,6.60
2018-10-16T01:17:41.391Z,6.60
2018-10-16T01:20:12.340Z,6.70
2018-10-16T01:22:41.531Z,6.70
2018-10-16T01:25:12.180Z,6.70
2018-10-16T01:27:41.355Z,6.90
2018-10-16T01:30:09.885Z,7.00
2018-10-16T01:32:39.288Z,7.00
2018-10-16T01:35:10.676Z,7.10
2018-10-16T01:37:39.924Z,7.20
2018-10-16T01:40:09.367Z,7.30
2018-10-16T01:42:37.998Z,7.40
2018-10-16T01:45:06.930Z,7.50
2018-10-16T01:47:36.067Z,7.50
2018-10-16T01:50:05.944Z,7.60
2018-10-16T01:52:34.406Z,7.70
2018-10-16T01:55:03.524Z,7.80
2018-10-16T01:57:32.610Z,7.90
2018-10-16T02:00:01.194Z,7.90
2018-10-16T02:02:29.605Z,7.90
2018-10-16T02:04:58.048Z,8.00
2018-10-16T02:07:26.968Z,8.00
2018-10-16T02:09:55.398Z,8.00
2018-10-16T02:12:23.797Z,8.00
2018-10-16T02:14:53.195Z,8.00
2018-10-16T02:17:22.627Z,8.10
2018-10-16T02:19:50.996Z,8.00
2018-10-16T02:22:19.955Z,8.10
2018-10-16T02:24:48.453Z,8.10
2018-10-16T02:27:16.972Z,8.10
2018-10-16T02:29:46.023Z,8.10
2018-10-16T02:32:15.719Z,8.10
2018-10-16T02:34:44.122Z,8.00
2018-10-16T02:37:12.504Z,8.00
2018-10-16T02:39:40.924Z,8.00
2018-10-16T02:42:09.525Z,8.00
2018-10-16T02:44:38.063Z,8.10
2018-10-16T02:47:06.948Z,8.10
2018-10-16T02:49:36.945Z,8.20
2018-10-16T02:52:05.496Z,8.20
2018-10-16T02:54:34.763Z,8.20
2018-10-16T02:57:03.689Z,8.30
2018-10-16T02:59:32.080Z,8.30
2018-10-16T03:02:00.463Z,8.40
2018-10-16T03:04:29.074Z,8.40
2018-10-16T03:06:58.406Z,8.50
2018-10-16T03:09:27.232Z,8.50
2018-10-16T03:11:57.012Z,8.50
2018-10-16T03:14:26.549Z,8.60
2018-10-16T03:16:55.252Z,8.60
2018-10-16T03:19:23.703Z,8.60
2018-10-16T03:21:52.367Z,8.70
2018-10-16T03:24:21.633Z,8.70
2018-10-16T03:26:50.131Z,8.60
2018-10-16T03:29:18.635Z,8.60
2018-10-16T03:31:47.870Z,8.60
2018-10-16T03:34:17.005Z,8.60
2018-10-16T03:36:45.504Z,8.70
2018-10-16T03:39:13.947Z,8.80
2018-10-16T03:41:42.758Z,8.90
2018-10-16T03:44:12.810Z,9.00
2018-10-16T03:46:41.688Z,9.20
2018-10-16T03:49:11.053Z,9.20
2018-10-16T03:51:40.400Z,9.30
2018-10-16T03:54:09.936Z,9.40
2018-10-16T03:56:38.428Z,9.40
2018-10-16T03:59:07.015Z,9.40
2018-10-16T04:01:35.491Z,9.40
2018-10-16T04:04:04.071Z,9.40
2018-10-16T04:06:32.606Z,9.40
2018-10-16T04:09:02.064Z,9.40
2018-10-16T04:11:30.888Z,9.40
2018-10-16T04:13:59.340Z,9.50
2018-10-16T04:16:27.838Z,9.50
2018-10-16T04:18:56.593Z,9.60
2018-10-16T04:21:29.911Z,9.70
2018-10-16T04:23:58.347Z,9.70
2018-10-16T04:26:27.639Z,9.70
2018-10-16T04:28:57.676Z,9.90
2018-10-16T04:31:26.115Z,9.90
2018-10-16T04:33:54.530Z,9.90
2018-10-16T04:36:23.307Z,9.90
2018-10-16T04:38:52.089Z,9.90
2018-10-16T04:41:21.327Z,9.90
2018-10-16T04:43:49.769Z,9.90
2018-10-16T04:46:18.141Z,9.90
2018-10-16T04:48:46.533Z,9.90
2018-10-16T04:51:14.905Z,9.80
2018-10-16T04:53:43.368Z,9.80
2018-10-16T04:56:12.650Z,9.80
2018-10-16T04:58:41.530Z,9.80
2018-10-16T05:01:09.976Z,9.80
2018-10-16T05:03:38.613Z,9.70
2018-10-16T05:06:07.038Z,9.70
2018-10-16T05:08:36.667Z,9.50
2018-10-16T05:11:05.676Z,9.50
2018-10-16T05:13:34.056Z,9.50
2018-10-16T05:16:02.435Z,9.50
2018-10-16T05:18:31.040Z,9.40
2018-10-16T05:20:59.995Z,9.40
2018-10-16T05:23:28.384Z,9.30
2018-10-16T05:25:56.881Z,9.30
2018-10-16T05:28:25.579Z,9.20
2018-10-16T05:30:54.427Z,9.20
2018-10-16T05:33:24.223Z,9.10
2018-10-16T05:35:52.969Z,9.00
2018-10-16T05:38:21.401Z,9.00
2018-10-16T05:40:49.826Z,9.10
2018-10-16T05:43:18.202Z,9.20
2018-10-16T05:45:47.044Z,9.10
2018-10-16T05:48:15.459Z,9.10
2018-10-16T05:50:45.307Z,9.10
2018-10-16T05:53:14.152Z,9.10
2018-10-16T05:55:43.594Z,9.10
2018-10-16T05:58:12.799Z,9.20
2018-10-16T06:00:44.937Z,9.30
2018-10-16T06:03:13.330Z,9.30
2018-10-16T06:05:42.294Z,9.40
2018-10-16T06:08:11.580Z,9.50
2018-10-16T06:10:40.496Z,9.50
2018-10-16T06:13:08.995Z,9.60
2018-10-16T06:15:37.483Z,9.70
2018-10-16T06:18:06.504Z,9.90
2018-10-16T06:20:36.079Z,10.00
2018-10-16T06:23:05.466Z,10.20
2018-10-16T06:25:35.667Z,10.30
2018-10-16T06:28:17.548Z,10.50
2018-10-16T06:30:46.018Z,10.60
2018-10-16T06:33:15.443Z,10.80
2018-10-16T06:35:45.064Z,10.90
2018-10-16T06:38:13.744Z,11.10
2018-10-16T06:40:42.947Z,11.20
2018-10-16T06:43:12.760Z,11.40
2018-10-16T06:45:42.578Z,11.60
2018-10-16T06:48:13.139Z,11.80
2018-10-16T06:50:43.514Z,12.00
2018-10-16T06:53:12.926Z,12.10
2018-10-16T06:55:41.425Z,12.30
2018-10-16T06:58:09.858Z,12.60
2018-10-16T07:00:38.305Z,12.90
2018-10-16T07:03:06.752Z,13.10
2018-10-16T07:05:35.353Z,13.40
2018-10-16T07:08:05.254Z,13.90
2018-10-16T07:10:35.704Z,14.20
2018-10-16T07:13:05.587Z,14.70
2018-10-16T07:15:35.131Z,15.20
2018-10-16T07:18:07.540Z,15.30
2018-10-16T07:20:36.043Z,15.50
2018-10-16T07:23:04.596Z,15.60
2018-10-16T07:25:33.011Z,15.70
2018-10-16T07:28:01.532Z,15.80
2018-10-16T07:30:30.058Z,15.80
2018-10-16T07:32:58.454Z,15.80
2018-10-16T07:35:27.026Z,16.00
2018-10-16T07:37:55.634Z,16.20
2018-10-16T07:40:24.004Z,16.30
2018-10-16T07:42:52.671Z,16.40
2018-10-16T07:45:21.208Z,16.60
2018-10-16T07:47:50.603Z,16.70
2018-10-16T07:50:19.322Z,16.80
2018-10-16T07:52:48.419Z,16.90
2018-10-16T07:55:16.944Z,17.00
2018-10-16T07:57:45.596Z,17.00
2018-10-16T08:00:14.893Z,17.00
2018-10-16T08:02:44.445Z,17.10
2018-10-16T08:05:13.929Z,17.10
2018-10-16T08:07:43.701Z,17.20
2018-10-16T08:10:14.615Z,17.20
2018-10-16T08:12:43.663Z,17.30
2018-10-16T08:15:12.403Z,17.30
2018-10-16T08:17:41.400Z,17.30
2018-10-16T08:20:10.003Z,17.30
2018-10-16T08:22:38.893Z,17.30
2018-10-16T08:25:07.571Z,17.30
2018-10-16T08:27:36.188Z,17.30
2018-10-16T08:30:05.600Z,17.40
2018-10-16T08:32:33.940Z,17.50
2018-10-16T08:35:02.963Z,17.50
2018-10-16T08:39:47.524Z,17.50
2018-10-16T08:42:32.008Z,17.50
2018-10-16T08:45:13.689Z,17.60
2018-10-16T08:47:53.911Z,17.70
2018-10-16T08:50:35.443Z,17.70
2018-10-16T08:53:04.178Z,17.70
2018-10-16T08:55:33.664Z,17.70
2018-10-16T08:58:03.088Z,17.60
2018-10-16T09:00:31.868Z,17.60
2018-10-16T09:03:00.417Z,17.60
2018-10-16T09:05:29.405Z,17.60
2018-10-16T09:07:58.021Z,17.50
2018-10-16T09:10:27.156Z,17.40
2018-10-16T09:12:56.751Z,17.40
2018-10-16T09:15:26.189Z,17.30
2018-10-16T09:17:55.714Z,17.30
2018-10-16T09:20:24.232Z,17.30
2018-10-16T09:22:52.719Z,17.30
2018-10-16T09:25:21.226Z,17.40
2018-10-16T09:27:50.571Z,17.50
2018-10-16T09:30:20.260Z,17.60
2018-10-16T09:32:49.961Z,17.70
2018-10-16T09:35:19.258Z,17.90
2018-10-16T09:37:48.950Z,18.00
2018-10-16T09:40:18.532Z,18.10
2018-10-16T09:42:48.455Z,18.20
2018-10-16T09:45:18.025Z,18.40
2018-10-16T09:47:46.875Z,18.60
2018-10-16T09:50:15.405Z,18.70
2018-10-16T09:52:43.949Z,18.70
2018-10-16T09:55:12.472Z,18.70
2018-10-16T09:57:41.073Z,18.80
2018-10-16T10:00:16.282Z,18.90
2018-10-16T10:02:44.892Z,19.00
2018-10-16T10:05:13.389Z,19.20
2018-10-16T10:07:41.875Z,19.30
2018-10-16T10:10:10.607Z,19.40
2018-10-16T10:12:39.632Z,19.50
2018-10-16T10:15:08.188Z,19.60
2018-10-16T10:17:36.912Z,19.60
2018-10-16T10:20:05.877Z,19.60
2018-10-16T10:22:34.344Z,19.50
2018-10-16T10:25:02.855Z,19.60
2018-10-16T10:27:31.656Z,19.50
2018-10-16T10:30:00.133Z,19.60
2018-10-16T10:32:28.652Z,19.90
2018-10-16T10:34:57.128Z,20.20
2018-10-16T10:37:25.656Z,20.80
2018-10-16T10:39:54.144Z,21.10
2018-10-16T10:42:22.623Z,21.70
2018-10-16T10:44:51.160Z,22.20
2018-10-16T10:47:19.921Z,22.40
2018-10-16T10:49:48.522Z,22.40
2018-10-16T10:52:17.027Z,22.40
2018-10-16T10:54:46.646Z,22.30
2018-10-16T10:57:15.275Z,22.00
2018-10-16T10:59:43.821Z,21.70
2018-10-16T11:02:12.339Z,21.50
2018-10-16T11:04:41.040Z,21.10
2018-10-16T11:07:09.556Z,21.00
2018-10-16T11:09:38.220Z,20.60
2018-10-16T11:12:06.835Z,20.40
2018-10-16T11:14:35.363Z,20.30
2018-10-16T11:17:03.920Z,20.10
2018-10-16T11:19:32.595Z,20.00
2018-10-16T11:22:01.104Z,19.90
2018-10-16T11:24:29.619Z,19.90
2018-10-16T11:26:58.241Z,20.00
2018-10-16T11:29:26.663Z,20.10
2018-10-16T11:31:55.174Z,20.20
2018-10-16T11:34:23.840Z,20.10
2018-10-16T11:36:52.580Z,20.00
2018-10-16T11:39:21.163Z,20.00
2018-10-16T11:41:49.824Z,20.10
2018-10-16T11:44:18.388Z,20.00
2018-10-16T11:46:46.996Z,20.00
2018-10-16T11:49:15.531Z,20.10
2018-10-16T11:51:44.046Z,20.10
2018-10-16T11:54:12.556Z,20.00
2018-10-16T11:56:41.087Z,19.90
2018-10-16T11:59:09.844Z,19.90
2018-10-16T12:01:38.308Z,19.90
2018-10-16T12:04:06.833Z,20.00
2018-10-16T12:06:35.376Z,20.20
2018-10-16T12:09:04.438Z,20.30
2018-10-16T12:11:32.981Z,20.40
2018-10-16T12:14:01.569Z,20.50
2018-10-16T12:16:33.569Z,20.50
2018-10-16T12:19:10.690Z,20.40
2018-10-16T12:21:39.280Z,20.40
2018-10-16T12:24:07.966Z,20.40
2018-10-16T12:26:36.578Z,20.40
2018-10-16T12:29:05.385Z,20.40
2018-10-16T12:31:33.884Z,20.40
2018-10-16T12:34:02.484Z,20.30
2018-10-16T12:36:31.064Z,20.40
2018-10-16T12:38:59.651Z,20.70
2018-10-16T12:41:28.244Z,21.00
2018-10-16T12:43:56.801Z,21.60
2018-10-16T12:46:25.350Z,21.70
2018-10-16T12:48:53.876Z,21.60
2018-10-16T12:51:22.359Z,21.50
2018-10-16T12:53:50.928Z,21.40
2018-10-16T12:56:19.377Z,21.20
2018-10-16T12:58:49.096Z,21.10
2018-10-16T13:01:17.584Z,20.90
2018-10-16T13:03:46.132Z,20.90
2018-10-16T13:06:14.579Z,20.80
2018-10-16T13:08:43.046Z,20.70
2018-10-16T13:11:11.712Z,20.50
2018-10-16T13:13:40.220Z,20.20
2018-10-16T13:16:08.816Z,20.10
2018-10-16T13:18:37.280Z,20.00
2018-10-16T13:21:06.248Z,19.90
2018-10-16T13:23:34.761Z,19.70
2018-10-16T13:26:03.333Z,19.60
2018-10-16T13:28:31.892Z,19.50
2018-10-16T13:31:00.411Z,19.50
2018-10-16T13:33:29.018Z,19.50
2018-10-16T13:35:57.513Z,19.50
2018-10-16T13:38:26.116Z,19.60
2018-10-16T13:40:54.692Z,19.90
2018-10-16T13:43:23.247Z,20.60
2018-10-16T13:45:51.822Z,21.20
2018-10-16T13:48:20.455Z,21.70
2018-10-16T13:50:49.220Z,22.10
2018-10-16T13:53:17.816Z,22.50
2018-10-16T13:55:46.378Z,23.20
2018-10-16T13:58:14.922Z,23.50
2018-10-16T14:00:44.482Z,23.80
2018-10-16T14:03:13.072Z,24.10
2018-10-16T14:05:41.672Z,24.00
2018-10-16T14:08:10.277Z,24.00
2018-10-16T14:10:38.846Z,23.70
2018-10-16T14:13:08.457Z,23.50
2018-10-16T14:15:37.041Z,23.60
2018-10-16T14:18:06.044Z,23.20
2018-10-16T14:20:34.674Z,23.00
2018-10-16T14:23:03.369Z,22.70
2018-10-16T14:25:31.944Z,22.40
2018-10-16T14:28:00.745Z,22.20
2018-10-16T14:30:29.399Z,22.10
2018-10-16T14:32:57.958Z,21.90
2018-10-16T14:35:26.532Z,21.60
2018-10-16T14:37:56.307Z,21.30
2018-10-16T14:40:24.981Z,21.60
2018-10-16T14:42:53.572Z,21.70
2018-10-16T14:45:22.131Z,21.70
2018-10-16T14:47:50.863Z,21.50
2018-10-16T14:50:19.254Z,21.20
2018-10-16T14:52:47.809Z,20.70
2018-10-16T14:55:16.401Z,20.30
2018-10-16T14:57:44.952Z,20.00
2018-10-16T15:00:13.924Z,19.70
2018-10-16T15:02:42.477Z,19.60
2018-10-16T15:05:11.933Z,19.50
2018-10-16T15:07:40.496Z,19.40
2018-10-16T15:10:09.640Z,19.50
2018-10-16T15:12:38.146Z,19.60
2018-10-16T15:15:07.558Z,19.60
2018-10-16T15:17:37.100Z,19.60
2018-10-16T15:20:07.983Z,19.50
2018-10-16T15:22:36.453Z,19.70
2018-10-16T15:25:06.517Z,19.70
2018-10-16T15:27:35.105Z,19.70
2018-10-16T15:30:03.816Z,19.40
2018-10-16T15:32:32.389Z,19.40
2018-10-16T15:35:00.956Z,19.30
2018-10-16T15:37:29.509Z,19.30
2018-10-16T15:39:58.073Z,19.20
2018-10-16T15:42:26.652Z,19.10
2018-10-16T15:44:55.197Z,19.10
2018-10-16T15:47:24.749Z,19.00
2018-10-16T15:49:53.393Z,19.00
2018-10-16T15:52:21.935Z,18.80
2018-10-16T15:54:50.452Z,18.60
2018-10-16T15:57:18.962Z,18.40
2018-10-16T15:59:47.502Z,18.30
2018-10-16T16:02:15.994Z,18.20
2018-10-16T16:04:44.656Z,18.10
2018-10-16T16:07:13.700Z,18.00
2018-10-16T16:09:42.157Z,17.90
2018-10-16T16:12:10.998Z,17.70
2018-10-16T16:14:39.480Z,17.50
2018-10-16T16:17:07.989Z,17.50
2018-10-16T16:19:36.549Z,17.40
2018-10-16T16:22:05.515Z,17.20
2018-10-16T16:24:34.068Z,17.00
2018-10-16T16:27:02.658Z,16.90
2018-10-16T16:29:31.193Z,16.80
2018-10-16T16:31:59.776Z,16.70
2018-10-16T16:34:28.373Z,16.50
2018-10-16T16:36:56.906Z,16.30
2018-10-16T16:39:25.495Z,16.10
2018-10-16T16:41:54.098Z,15.90
2018-10-16T16:44:22.773Z,15.80
2018-10-16T16:46:51.387Z,15.60
2018-10-16T16:49:19.920Z,15.60
2018-10-16T16:51:48.493Z,15.40
2018-10-16T16:54:17.061Z,15.30
2018-10-16T16:56:45.680Z,15.10
2018-10-16T16:59:14.228Z,14.90
2018-10-16T17:01:42.779Z,14.70
2018-10-16T17:04:11.331Z,14.40
2018-10-16T17:06:39.892Z,14.20
2018-10-16T17:09:09.596Z,14.10
2018-10-16T17:11:38.264Z,13.90
2018-10-16T17:14:07.110Z,13.70
2018-10-16T17:16:35.952Z,13.60
2018-10-16T17:19:05.094Z,13.40
2018-10-16T17:21:33.648Z,13.30
2018-10-16T17:24:02.216Z,13.20
2018-10-16T17:26:30.778Z,13.10
2018-10-16T17:28:59.357Z,13.00
2018-10-16T17:31:27.873Z,12.90
2018-10-16T17:33:56.424Z,12.80
2018-10-16T17:36:24.963Z,12.80
2018-10-16T17:38:53.497Z,12.80
2018-10-16T17:41:21.969Z,12.80
2018-10-16T17:43:50.505Z,12.80
2018-10-16T17:46:19.107Z,12.70
2018-10-16T17:48:48.660Z,12.80
2018-10-16T17:51:17.195Z,12.80
2018-10-16T17:53:45.700Z,12.90
2018-10-16T17:56:14.424Z,13.00
2018-10-16T17:58:42.936Z,13.00
2018-10-16T18:01:11.452Z,13.00
2018-10-16T18:03:39.993Z,13.00
2018-10-16T18:06:08.482Z,13.00
2018-10-16T18:08:36.979Z,13.00
2018-10-16T18:11:05.677Z,13.00
2018-10-16T18:13:34.213Z,13.00
2018-10-16T18:16:02.626Z,13.00
2018-10-16T18:18:31.282Z,13.00
2018-10-16T18:21:00.574Z,13.00
2018-10-16T18:23:29.636Z,13.00
2018-10-16T18:25:58.320Z,13.10
2018-10-16T18:28:27.250Z,13.10
2018-10-16T18:30:55.762Z,13.10
2018-10-16T18:33:24.360Z,13.10
2018-10-16T18:35:52.990Z,13.10
2018-10-16T18:38:22.481Z,13.10
2018-10-16T18:40:51.052Z,13.10
2018-10-16T18:43:20.352Z,13.20
2018-10-16T18:45:48.829Z,13.10
2018-10-16T18:48:17.359Z,13.10
2018-10-16T18:50:45.832Z,13.10
2018-10-16T18:53:14.300Z,13.10
2018-10-16T18:55:42.740Z,13.00
2018-10-16T18:58:11.153Z,13.00
2018-10-16T19:00:39.833Z,13.10
2018-10-16T19:03:08.410Z,13.20
2018-10-16T19:05:36.884Z,13.10
2018-10-16T19:08:05.424Z,13.10
2018-10-16T19:10:34.889Z,13.00
2018-10-16T19:13:03.547Z,13.00
2018-10-16T19:15:31.920Z,12.90
2018-10-16T19:18:00.376Z,12.90
2018-10-16T19:20:28.783Z,12.90
2018-10-16T19:22:57.251Z,12.80
2018-10-16T19:25:25.748Z,12.80
2018-10-16T19:27:54.433Z,12.70
2018-10-16T19:30:23.099Z,12.70
2018-10-16T19:32:51.642Z,12.70
2018-10-16T19:35:20.184Z,12.60
2018-10-16T19:37:48.723Z,12.60
2018-10-16T19:40:17.244Z,12.50
2018-10-16T19:42:45.843Z,12.40
2018-10-16T19:45:14.568Z,12.40
2018-10-16T19:47:43.012Z,12.40
2018-10-16T19:50:11.935Z,12.30
2018-10-16T19:52:40.769Z,12.20
2018-10-16T19:55:09.336Z,12.10
2018-10-16T19:57:37.922Z,12.00
2018-10-16T20:00:07.424Z,11.90
2018-10-16T20:02:35.929Z,11.90
2018-10-16T20:05:04.798Z,11.90
2018-10-16T20:07:33.316Z,11.80
2018-10-16T20:10:01.870Z,11.70
2018-10-16T20:12:30.412Z,11.60
2018-10-16T20:14:58.969Z,11.50
2018-10-16T20:17:27.475Z,11.40
2018-10-16T20:19:56.112Z,11.30
2018-10-16T20:22:24.637Z,11.30
2018-10-16T20:24:53.307Z,11.20
2018-10-16T20:27:21.692Z,11.20
2018-10-16T20:29:50.272Z,11.10
2018-10-16T20:32:18.901Z,10.90
2018-10-16T20:34:47.410Z,10.90
2018-10-16T20:37:15.976Z,10.90
2018-10-16T20:39:44.432Z,10.80
2018-10-16T20:42:13.029Z,10.80
2018-10-16T20:44:41.545Z,10.60
2018-10-16T20:47:10.056Z,10.60
2018-10-16T20:49:38.631Z,10.40
2018-10-16T20:52:07.307Z,10.30
2018-10-16T20:54:35.790Z,10.30
2018-10-16T20:57:04.238Z,10.30
2018-10-16T20:59:32.776Z,10.30
2018-10-16T21:02:01.334Z,10.30
2018-10-16T21:04:29.960Z,10.30
2018-10-16T21:06:58.746Z,10.40
2018-10-16T21:09:27.152Z,10.40
2018-10-16T21:11:55.672Z,10.50
2018-10-16T21:14:24.177Z,10.50
2018-10-16T21:16:52.673Z,10.60
2018-10-16T21:19:21.231Z,10.60
2018-10-16T21:21:49.694Z,10.80
2018-10-16T21:24:18.216Z,10.80
2018-10-16T21:27:00.065Z,10.90
2018-10-16T21:29:28.546Z,10.90
2018-10-16T21:31:56.999Z,10.80
2018-10-16T21:34:25.493Z,10.70
2018-10-16T21:36:53.971Z,10.70
2018-10-16T21:39:22.416Z,10.70
2018-10-16T21:41:50.919Z,10.70
2018-10-16T21:44:20.004Z,10.70
2018-10-16T21:46:50.156Z,10.70
2018-10-16T21:49:18.584Z,10.70
2018-10-16T21:51:47.066Z,10.60
2018-10-16T21:54:15.600Z,10.60
2018-10-16T21:56:44.032Z,10.60
2018-10-16T21:59:12.567Z,10.60
2018-10-16T22:01:46.224Z,10.60
2018-10-16T22:04:14.796Z,10.60
2018-10-16T22:06:43.323Z,10.50
2018-10-16T22:09:13.487Z,10.50
2018-10-16T22:11:41.990Z,10.30
2018-10-16T22:14:11.116Z,10.20
2018-10-16T22:16:39.640Z,10.10
2018-10-16T22:19:08.398Z,9.90
2018-10-16T22:21:36.834Z,9.90
2018-10-16T22:24:05.377Z,9.80
2018-10-16T22:26:33.850Z,9.80
2018-10-16T22:29:02.376Z,9.70
2018-10-16T22:31:30.842Z,9.60
2018-10-16T22:33:59.412Z,9.60
2018-10-16T22:36:27.952Z,9.60
2018-10-16T22:38:56.427Z,9.50
2018-10-16T22:41:24.995Z,9.50
2018-10-16T22:43:53.500Z,9.40
2018-10-16T22:46:21.967Z,9.30
2018-10-16T22:48:50.406Z,9.20
2018-10-16T22:51:18.900Z,9.10
2018-10-16T22:53:47.404Z,9.10
2018-10-16T22:56:15.839Z,9.10
2018-10-16T22:58:44.320Z,9.00
2018-10-16T23:01:12.944Z,8.90
2018-10-16T23:03:41.398Z,8.90
2018-10-16T23:06:09.971Z,8.90
2018-10-16T23:08:38.550Z,8.80
2018-10-16T23:11:07.058Z,8.80
2018-10-16T23:13:35.511Z,8.80
2018-10-16T23:16:03.951Z,8.80
2018-10-16T23:18:33.275Z,8.70
2018-10-16T23:21:01.644Z,8.60
2018-10-16T23:23:30.024Z,8.60
2018-10-16T23:25:58.421Z,8.60
2018-10-16T23:28:27.796Z,8.60
2018-10-16T23:30:56.244Z,8.60
2018-10-16T23:33:24.599Z,8.60
2018-10-16T23:35:52.941Z,8.50
2018-10-16T23:38:21.333Z,8.60
2018-10-16T23:40:49.831Z,8.60
2018-10-16T23:43:18.359Z,8.70
2018-10-16T23:45:46.715Z,8.70
2018-10-16T23:48:15.175Z,8.70
2018-10-16T23:50:43.553Z,8.80
2018-10-16T23:53:11.965Z,8.80
2018-10-16T23:55:40.284Z,8.70
2018-10-16T23:58:08.667Z,8.70
